Aérodrome :
LOGIN :

S'inscrire | Disclaimer

   EN    FR    IT 

 










Légende :    VFR   VFR Marginal   IFR   IFR Intensif   IFR Très Intensif
Visi : 
Plafond : 
>= 8 km
>= 3000ft
5 à 8 km
1000 à 3000 ft
1500m à 5 km
500 à 1000 ft
800 à 1500m
200 à 500 ft
< 800m
< 200 ft
Symboles :   Orages  Brouillard  Fortes neiges  Fortes précipitations  Vent > 20 kt
SIGMETs :   Divers  Orages  Givrage  Turbulence  Onde Orograph.  Cendres Volcan.







- Altitude de l'aérodrome : 505 ft
- Code IATA : SXB
- Voir les cartes d'approche


LFST - Strasbourg

DERNIER METAR :
  • 232130Z AUTO 18013KT 9999 BKN031 BKN039 OVC120 07/03 Q1026 NOSIG

METARs EXPIRÉS :
  • 232100Z AUTO 18011KT 9999 BKN035 BKN046 OVC120 07/04 Q1026 NOSIG
  • 232030Z AUTO 18012KT 9999 BKN034 BKN043 OVC056 07/04 Q1026 NOSIG
  • 232000Z AUTO 18012KT 9999 FEW035 BKN042 OVC094 07/04 Q1026 NOSIG
  • 231930Z AUTO 17008KT 9999 SCT042 BKN094 BKN210 07/03 Q1026 NOSIG
  • 231900Z AUTO 17006KT CAVOK 06/04 Q1026 NOSIG

TAF TAF LFST
Valide du 23 à 18h jusqu'au 24 à 18h UTC


231700Z 2318/2418 19010KT 9999 OVC040
PROB40
TEMPO 2400/2406 -RA
Pas de NOTAMs connus pour ce terrain.



MET'MAP, la Météo Aéronautique d'un coup d'oeil ! - Copyright ORBIFLY Décembre 2007 - Disclaimer

ORBIFLY MET'MAP TEAM :

Programmation & Développement : Alexandra Zaïnal
Conception & Développement : Baudouin d'Aumeries
Co-Programmation & Développement : Marc-Olivier Méhu
Soutien technique & logistique : Manuel Goepfert

Contact : metmap@orbifly.com




SOURCES & CREDITS :

   NOAA